ADDS METAR Data INFO
IDs: Format: Raw Decoded Include TAF

Data at: 1118 UTC 21 Feb 2018

PPIZ 201456Z AUTO 16018KT 10SM CLR M03/M04 A2969 RMK AO2 PK WND 18028/1406 SLP057 60000 T10281039 58006 FZRANO TSNO
PPIZ 201356Z AUTO 18024G27KT 10SM FEW019 M02/M03 A2970 RMK AO2 PK WND 18028/1259 UPE14 SLP063 P0000 T10171028 FZRANO TSNO
PPIZ 201329Z AUTO 18023KT 10SM SCT018 M01/M02 A2971 RMK AO2 PK WND 18028/1259 UPE14 P0000 FZRANO TSNO
PPIZ 201256Z AUTO 18026KT 5SM UP BR BKN018 OVC035 00/M01 A2971 RMK AO2 PK WND 18030/1252 UPB1159E13B53SNE1159 SLP063 P0000 T00001011 FZRANO TSNO
PPIZ 201240Z AUTO 18023KT 10SM BKN018 M01/M01 A2971 RMK AO2 PK WND 18028/1227 UPB1159E13SNE1159 P0000 FZRANO TSNO
PPIZ 201200Z AUTO 18023KT 3SM UP BR SCT020 M01/M01 A2971 RMK AO2 PK WND 18026/1157 UPB1159SNE1159 P0000 FZRANO TSNO
PPIZ 201156Z AUTO 18025KT 2 1/2SM -SN BR BKN022 M01/M01 A2971 RMK AO2 PK WND 18035/1057 SLP063 P0000 60000 T10061011 10011 21006 53009 FZRANO TSNO
PPIZ 201056Z AUTO 18029G34KT 1 1/2SM -SN BR OVC017 01/M01 A2969 RMK AO2 PK WND 18034/1051 VIS 1V3 UPE51SNB51 SLP056 P0000 T00061006 FZRANO TSNO
PPIZ 201053Z AUTO 18028G34KT 1 3/4SM -SN BR OVC017 01/M01 A2968 RMK AO2 PK WND 18034/1051 VIS 1V5 UPE51SNB51 P0000 FZRANO TSNO
PPIZ 200956Z AUTO 17022KT 10SM UP OVC021 01/M01 A2969 RMK AO2 PK WND 17031/0902 RAE21UPB27 SLP056 P0000 T00061006 FZRANO TSNO
PPIZ 200924Z AUTO 17021KT 10SM BKN026 OVC036 01/M01 A2969 RMK AO2 PK WND 17031/0902 RAE21 P0000 FZRANO TSNO
PPIZ 200856Z AUTO 17027KT 5SM -RA BR FEW028 BKN034 OVC050 01/M01 A2968 RMK AO2 PK WND 17035/0837 RAB29 SLP054 P0000 60000 T00061006 400111067 56012 FZRANO TSNO
PPIZ 200756Z AUTO 17021G30KT 10SM BKN037 OVC080 01/M01 A2969 RMK AO2 PK WND 17030/0748 UPE0658RAB09E19 SLP059 P0000 T00111006 FZRANO TSNO
PPIZ 200456Z AUTO 16011KT 6SM -SN BR SCT026 BKN033 OVC050 01/M01 A2973 RMK AO2 RAB00E05SNB05 SLP070 P0000 T00061006 FZRANO TSNO
PPIZ 200356Z AUTO 12009KT 10SM SCT029 BKN036 OVC050 01/M01 A2973 RMK AO2 UPB22E26SNE22 SLP073 P0000 T00061006 FZRANO TSNO
PPIZ 200318Z AUTO 11010KT 9SM -SN BKN027 OVC039 00/M01 A2975 RMK AO2 P0000 FZRANO TSNO
PPIZ 200256Z AUTO 10009KT 9SM -SN BKN035 OVC041 00/M01 A2976 RMK AO2 SLP083 P0000 60000 T00001006 56030 FZRANO TSNO
PPIZ 200156Z AUTO 12012KT 8SM -SN BKN046 OVC055 00/M01 A2978 RMK AO2 SLP088 P0000 T00001006 FZRANO TSNO
PPIZ 200056Z AUTO 11013KT 4SM -SN BR SCT024 BKN032 OVC041 00/M01 A2981 RMK AO2 PRESFR SLP100 P0000 T00001006 FZRANO TSNO
PPIZ 200048Z AUTO 11014KT 3SM -SN BR SCT024 BKN034 OVC044 00/M01 A2982 RMK AO2 P0000 FZRANO TSNO
PPIZ 200043Z AUTO 12014KT 2SM -SN BR FEW018 BKN024 OVC034 00/M01 A2983 RMK AO2 P0000 FZRANO TSNO
PPIZ 200036Z AUTO 12013KT 3SM -SN BR FEW018 BKN024 OVC034 00/M01 A2983 RMK AO2 P0000 FZRANO TSNO
PPIZ 200029Z AUTO 12014KT 4SM -SN BR SCT026 BKN034 OVC045 M01/M01 A2984 RMK AO2 P0000 FZRANO TSNO
PPIZ 200019Z AUTO 11013KT 2 1/2SM -SN BR SCT026 BKN034 OVC047 M01/M01 A2985 RMK AO2 P0000 FZRANO TSNO
PPIZ 200003Z AUTO 11015KT 3SM -SN BR SCT034 OVC048 M01/M01 A2985 RMK AO2 P0000 FZRANO TSNO
PPIZ 192356Z AUTO 11016KT 2 1/2SM -SN BR BKN034 OVC046 M01/M01 A2985 RMK AO2 SLP113 P0000 60000 T10061011 10000 21017 56035 FZRANO TSNO
PPIZ 192346Z AUTO 11017KT 2SM -SN BR BKN034 OVC045 M01/M01 A2985 RMK AO2 VIS 1 3/4V3 P0000 FZRANO TSNO
PPIZ 192332Z AUTO 11018KT 3SM -SN BR FEW026 OVC036 M01/M01 A2985 RMK AO2 P0000 FZRANO TSNO
PPIZ 192328Z AUTO 10017KT 1 3/4SM -SN BR FEW024 OVC034 M01/M01 A2985 RMK AO2 P0000 FZRANO TSNO